< < Back
Terminal Aerodrome Forecast


Current Version              Previous Versions:   1  2  3  4  5  6  7  8  9  

Terminal Aerodrome Forecast

067
FTUS44 KHUN 231728
TAFHSV
TAF
KHSV 231728Z 2318/2418 12017G22KT 6SM BR VCSH BKN015 OVC025
     FM232000 18015G20KT 6SM -SHRA OVC009
     FM240000 18015G20KT P6SM VCSH OVC015
     FM240600 21014G18KT P6SM BKN030
     FM241300 25017G22KT P6SM OVC050=



Latest METAR

137
SAUS80 KWBC 240200
MTRHSV
METAR KHSV 240153Z 21017G25KT 10SM FEW050 OVC060 18/13 A2955 RMK AO2 PK
WND 20028/0058 SLP002 T01830133


USA.gov is the U.S. government's official web portal to all federal, state and local government web resources and services.